sensor_id;sensor_type;location;lat;lon;timestamp;P1;durP1;ratioP1;P2;durP2;ratioP2
11498;SDS011;5806;48.748;9.278;2023-11-19T00:01:38;2.40;;;2.20;;
11498;SDS011;5806;48.748;9.278;2023-11-19T00:04:06;1.30;;;1.20;;
11498;SDS011;5806;48.748;9.278;2023-11-19T00:06:34;1.83;;;1.57;;
11498;SDS011;5806;48.748;9.278;2023-11-19T00:09:01;1.70;;;1.57;;
11498;SDS011;5806;48.748;9.278;2023-11-19T00:11:29;3.20;;;1.50;;
11498;SDS011;5806;48.748;9.278;2023-11-19T00:13:57;1.50;;;1.40;;
11498;SDS011;5806;48.748;9.278;2023-11-19T00:16:24;1.90;;;1.70;;
11498;SDS011;5806;48.748;9.278;2023-11-19T00:18:52;2.23;;;1.50;;
11498;SDS011;5806;48.748;9.278;2023-11-19T00:21:19;1.63;;;1.53;;
11498;SDS011;5806;48.748;9.278;2023-11-19T00:23:47;2.90;;;1.20;;
11498;SDS011;5806;48.748;9.278;2023-11-19T00:26:15;1.90;;;1.20;;
11498;SDS011;5806;48.748;9.278;2023-11-19T00:28:42;1.33;;;1.10;;
11498;SDS011;5806;48.748;9.278;2023-11-19T00:31:10;1.20;;;1.10;;
11498;SDS011;5806;48.748;9.278;2023-11-19T00:33:38;1.50;;;1.30;;
11498;SDS011;5806;48.748;9.278;2023-11-19T00:36:05;2.30;;;0.97;;
11498;SDS011;5806;48.748;9.278;2023-11-19T00:38:33;2.97;;;1.03;;
11498;SDS011;5806;48.748;9.278;2023-11-19T00:41:02;2.27;;;1.20;;
11498;SDS011;5806;48.748;9.278;2023-11-19T00:43:29;2.13;;;1.00;;
11498;SDS011;5806;48.748;9.278;2023-11-19T00:45:57;0.90;;;0.90;;
11498;SDS011;5806;48.748;9.278;2023-11-19T00:48:26;1.17;;;1.07;;
11498;SDS011;5806;48.748;9.278;2023-11-19T00:50:53;1.10;;;1.00;;
11498;SDS011;5806;48.748;9.278;2023-11-19T00:53:21;1.20;;;1.07;;
11498;SDS011;5806;48.748;9.278;2023-11-19T00:55:48;3.40;;;1.20;;
11498;SDS011;5806;48.748;9.278;2023-11-19T00:58:16;1.13;;;1.03;;
11498;SDS011;5806;48.748;9.278;2023-11-19T01:00:43;1.30;;;0.90;;
11498;SDS011;5806;48.748;9.278;2023-11-19T01:03:11;1.53;;;1.20;;
11498;SDS011;5806;48.748;9.278;2023-11-19T01:05:45;2.43;;;1.20;;
11498;SDS011;5806;48.748;9.278;2023-11-19T01:08:10;1.23;;;1.10;;
11498;SDS011;5806;48.748;9.278;2023-11-19T01:10:41;1.50;;;1.10;;
11498;SDS011;5806;48.748;9.278;2023-11-19T01:13:09;2.83;;;1.10;;
11498;SDS011;5806;48.748;9.278;2023-11-19T01:15:37;0.83;;;0.80;;
11498;SDS011;5806;48.748;9.278;2023-11-19T01:18:06;1.93;;;0.93;;
11498;SDS011;5806;48.748;9.278;2023-11-19T01:20:35;1.50;;;1.33;;
11498;SDS011;5806;48.748;9.278;2023-11-19T01:23:03;1.00;;;0.90;;
11498;SDS011;5806;48.748;9.278;2023-11-19T01:25:31;2.57;;;1.30;;
11498;SDS011;5806;48.748;9.278;2023-11-19T01:27:59;1.63;;;1.40;;
11498;SDS011;5806;48.748;9.278;2023-11-19T01:30:28;4.20;;;1.50;;
11498;SDS011;5806;48.748;9.278;2023-11-19T01:32:56;5.03;;;1.60;;
11498;SDS011;5806;48.748;9.278;2023-11-19T01:35:23;3.37;;;1.20;;
11498;SDS011;5806;48.748;9.278;2023-11-19T01:37:51;3.00;;;1.57;;
11498;SDS011;5806;48.748;9.278;2023-11-19T01:40:21;2.40;;;1.57;;
11498;SDS011;5806;48.748;9.278;2023-11-19T01:42:49;1.30;;;1.10;;
11498;SDS011;5806;48.748;9.278;2023-11-19T01:45:27;3.07;;;1.40;;
11498;SDS011;5806;48.748;9.278;2023-11-19T01:47:57;3.20;;;1.80;;
11498;SDS011;5806;48.748;9.278;2023-11-19T01:50:27;3.10;;;1.87;;
11498;SDS011;5806;48.748;9.278;2023-11-19T01:52:55;3.00;;;1.73;;
11498;SDS011;5806;48.748;9.278;2023-11-19T01:55:26;2.73;;;1.70;;
11498;SDS011;5806;48.748;9.278;2023-11-19T01:57:57;1.93;;;1.30;;
11498;SDS011;5806;48.748;9.278;2023-11-19T02:00:26;2.33;;;1.40;;
11498;SDS011;5806;48.748;9.278;2023-11-19T02:02:54;2.00;;;1.60;;
11498;SDS011;5806;48.748;9.278;2023-11-19T02:05:23;3.17;;;1.40;;
11498;SDS011;5806;48.748;9.278;2023-11-19T02:07:51;3.47;;;1.30;;
11498;SDS011;5806;48.748;9.278;2023-11-19T02:10:19;3.50;;;1.47;;
11498;SDS011;5806;48.748;9.278;2023-11-19T02:12:46;2.40;;;1.90;;
11498;SDS011;5806;48.748;9.278;2023-11-19T02:15:15;4.97;;;2.10;;
11498;SDS011;5806;48.748;9.278;2023-11-19T02:17:45;2.37;;;1.90;;
11498;SDS011;5806;48.748;9.278;2023-11-19T02:20:12;4.33;;;1.63;;
11498;SDS011;5806;48.748;9.278;2023-11-19T02:22:41;2.73;;;1.87;;
11498;SDS011;5806;48.748;9.278;2023-11-19T02:25:10;3.83;;;1.87;;
11498;SDS011;5806;48.748;9.278;2023-11-19T02:27:58;3.73;;;2.03;;
11498;SDS011;5806;48.748;9.278;2023-11-19T02:30:27;4.40;;;2.00;;
11498;SDS011;5806;48.748;9.278;2023-11-19T02:32:55;3.40;;;1.73;;
11498;SDS011;5806;48.748;9.278;2023-11-19T02:35:27;4.00;;;1.93;;
11498;SDS011;5806;48.748;9.278;2023-11-19T02:37:57;3.90;;;1.90;;
11498;SDS011;5806;48.748;9.278;2023-11-19T02:40:33;3.13;;;2.37;;
11498;SDS011;5806;48.748;9.278;2023-11-19T02:43:01;2.50;;;1.70;;
11498;SDS011;5806;48.748;9.278;2023-11-19T02:45:30;5.43;;;2.43;;
11498;SDS011;5806;48.748;9.278;2023-11-19T02:47:57;3.90;;;2.20;;
11498;SDS011;5806;48.748;9.278;2023-11-19T02:50:27;3.77;;;2.30;;
11498;SDS011;5806;48.748;9.278;2023-11-19T02:52:55;4.00;;;2.20;;
11498;SDS011;5806;48.748;9.278;2023-11-19T02:55:24;4.10;;;2.13;;
11498;SDS011;5806;48.748;9.278;2023-11-19T02:57:53;2.13;;;1.90;;
11498;SDS011;5806;48.748;9.278;2023-11-19T03:00:22;3.97;;;2.47;;
11498;SDS011;5806;48.748;9.278;2023-11-19T03:02:51;6.13;;;2.57;;
11498;SDS011;5806;48.748;9.278;2023-11-19T03:05:25;3.63;;;1.87;;
11498;SDS011;5806;48.748;9.278;2023-11-19T03:07:55;3.43;;;1.97;;
11498;SDS011;5806;48.748;9.278;2023-11-19T03:10:23;16.93;;;3.07;;
11498;SDS011;5806;48.748;9.278;2023-11-19T03:12:50;3.97;;;1.93;;
11498;SDS011;5806;48.748;9.278;2023-11-19T03:15:18;6.40;;;2.30;;
11498;SDS011;5806;48.748;9.278;2023-11-19T03:17:46;9.77;;;2.60;;
11498;SDS011;5806;48.748;9.278;2023-11-19T03:20:14;4.63;;;2.40;;
11498;SDS011;5806;48.748;9.278;2023-11-19T03:22:42;7.97;;;2.80;;
11498;SDS011;5806;48.748;9.278;2023-11-19T03:25:10;6.10;;;2.60;;
11498;SDS011;5806;48.748;9.278;2023-11-19T03:27:39;8.47;;;3.03;;
11498;SDS011;5806;48.748;9.278;2023-11-19T03:30:16;8.77;;;2.93;;
11498;SDS011;5806;48.748;9.278;2023-11-19T03:32:43;10.97;;;3.07;;
11498;SDS011;5806;48.748;9.278;2023-11-19T03:35:11;7.77;;;3.10;;
11498;SDS011;5806;48.748;9.278;2023-11-19T03:37:38;8.17;;;3.23;;
11498;SDS011;5806;48.748;9.278;2023-11-19T03:40:06;10.73;;;3.20;;
11498;SDS011;5806;48.748;9.278;2023-11-19T03:42:39;7.13;;;3.60;;
11498;SDS011;5806;48.748;9.278;2023-11-19T03:45:08;9.03;;;3.37;;
11498;SDS011;5806;48.748;9.278;2023-11-19T03:47:36;10.77;;;3.37;;
11498;SDS011;5806;48.748;9.278;2023-11-19T03:50:05;10.83;;;3.60;;
11498;SDS011;5806;48.748;9.278;2023-11-19T03:52:36;11.20;;;3.43;;
11498;SDS011;5806;48.748;9.278;2023-11-19T03:55:04;9.93;;;3.87;;
11498;SDS011;5806;48.748;9.278;2023-11-19T03:57:34;13.87;;;3.70;;
11498;SDS011;5806;48.748;9.278;2023-11-19T04:00:04;14.80;;;3.70;;
11498;SDS011;5806;48.748;9.278;2023-11-19T04:02:34;12.93;;;3.83;;
11498;SDS011;5806;48.748;9.278;2023-11-19T04:05:02;12.53;;;3.20;;
11498;SDS011;5806;48.748;9.278;2023-11-19T04:07:32;11.63;;;3.53;;
11498;SDS011;5806;48.748;9.278;2023-11-19T04:10:00;15.10;;;3.87;;
11498;SDS011;5806;48.748;9.278;2023-11-19T04:12:27;15.97;;;4.27;;
11498;SDS011;5806;48.748;9.278;2023-11-19T04:14:55;17.23;;;4.00;;
11498;SDS011;5806;48.748;9.278;2023-11-19T04:17:22;15.87;;;4.27;;
11498;SDS011;5806;48.748;9.278;2023-11-19T04:19:50;14.53;;;4.50;;
11498;SDS011;5806;48.748;9.278;2023-11-19T04:22:18;12.80;;;4.33;;
11498;SDS011;5806;48.748;9.278;2023-11-19T04:24:46;18.90;;;5.57;;
11498;SDS011;5806;48.748;9.278;2023-11-19T04:27:13;17.43;;;5.60;;
11498;SDS011;5806;48.748;9.278;2023-11-19T04:29:41;19.63;;;4.80;;
11498;SDS011;5806;48.748;9.278;2023-11-19T04:32:08;18.53;;;5.63;;
11498;SDS011;5806;48.748;9.278;2023-11-19T04:34:38;20.30;;;5.43;;
11498;SDS011;5806;48.748;9.278;2023-11-19T04:37:06;19.20;;;5.17;;
11498;SDS011;5806;48.748;9.278;2023-11-19T04:39:33;18.43;;;6.30;;
11498;SDS011;5806;48.748;9.278;2023-11-19T04:42:05;18.93;;;5.37;;
11498;SDS011;5806;48.748;9.278;2023-11-19T04:44:34;18.00;;;5.50;;
11498;SDS011;5806;48.748;9.278;2023-11-19T04:47:02;17.60;;;4.70;;
11498;SDS011;5806;48.748;9.278;2023-11-19T04:49:29;18.33;;;4.33;;
11498;SDS011;5806;48.748;9.278;2023-11-19T04:51:57;16.83;;;4.70;;
11498;SDS011;5806;48.748;9.278;2023-11-19T04:54:24;16.57;;;4.53;;
11498;SDS011;5806;48.748;9.278;2023-11-19T04:56:52;12.03;;;4.97;;
11498;SDS011;5806;48.748;9.278;2023-11-19T04:59:20;17.23;;;4.47;;
11498;SDS011;5806;48.748;9.278;2023-11-19T05:01:47;18.93;;;3.80;;
11498;SDS011;5806;48.748;9.278;2023-11-19T05:04:15;15.67;;;4.70;;
11498;SDS011;5806;48.748;9.278;2023-11-19T05:06:44;16.60;;;3.77;;
11498;SDS011;5806;48.748;9.278;2023-11-19T05:09:12;20.07;;;3.67;;
11498;SDS011;5806;48.748;9.278;2023-11-19T05:11:41;15.23;;;4.50;;
11498;SDS011;5806;48.748;9.278;2023-11-19T05:14:09;14.27;;;3.60;;
11498;SDS011;5806;48.748;9.278;2023-11-19T05:16:37;19.43;;;4.43;;
11498;SDS011;5806;48.748;9.278;2023-11-19T05:19:12;18.67;;;4.00;;
11498;SDS011;5806;48.748;9.278;2023-11-19T05:21:41;20.97;;;4.63;;
11498;SDS011;5806;48.748;9.278;2023-11-19T05:24:09;12.80;;;4.13;;
11498;SDS011;5806;48.748;9.278;2023-11-19T05:26:37;18.90;;;4.03;;
11498;SDS011;5806;48.748;9.278;2023-11-19T05:29:06;11.17;;;2.83;;
11498;SDS011;5806;48.748;9.278;2023-11-19T05:31:33;15.77;;;3.07;;
11498;SDS011;5806;48.748;9.278;2023-11-19T05:34:01;14.67;;;3.20;;
11498;SDS011;5806;48.748;9.278;2023-11-19T05:36:28;14.20;;;3.57;;
11498;SDS011;5806;48.748;9.278;2023-11-19T05:38:56;13.03;;;3.27;;
11498;SDS011;5806;48.748;9.278;2023-11-19T05:41:23;16.27;;;2.93;;
11498;SDS011;5806;48.748;9.278;2023-11-19T05:43:51;13.17;;;3.23;;
11498;SDS011;5806;48.748;9.278;2023-11-19T05:46:18;17.70;;;3.23;;
11498;SDS011;5806;48.748;9.278;2023-11-19T05:48:46;14.70;;;2.90;;
11498;SDS011;5806;48.748;9.278;2023-11-19T05:51:14;15.20;;;3.43;;
11498;SDS011;5806;48.748;9.278;2023-11-19T05:53:41;23.63;;;4.00;;
11498;SDS011;5806;48.748;9.278;2023-11-19T05:56:09;21.83;;;5.23;;
11498;SDS011;5806;48.748;9.278;2023-11-19T05:58:38;13.10;;;3.07;;
11498;SDS011;5806;48.748;9.278;2023-11-19T06:01:06;15.97;;;2.73;;
11498;SDS011;5806;48.748;9.278;2023-11-19T06:03:33;21.40;;;3.57;;
11498;SDS011;5806;48.748;9.278;2023-11-19T06:06:02;17.97;;;3.60;;
11498;SDS011;5806;48.748;9.278;2023-11-19T06:08:30;14.97;;;3.30;;
11498;SDS011;5806;48.748;9.278;2023-11-19T06:10:58;17.07;;;3.00;;
11498;SDS011;5806;48.748;9.278;2023-11-19T06:13:27;17.83;;;3.70;;
11498;SDS011;5806;48.748;9.278;2023-11-19T06:15:56;15.30;;;2.77;;
11498;SDS011;5806;48.748;9.278;2023-11-19T06:18:23;17.37;;;2.97;;
11498;SDS011;5806;48.748;9.278;2023-11-19T06:20:51;16.20;;;3.93;;
11498;SDS011;5806;48.748;9.278;2023-11-19T06:23:18;17.37;;;4.33;;
11498;SDS011;5806;48.748;9.278;2023-11-19T06:25:46;18.73;;;2.73;;
11498;SDS011;5806;48.748;9.278;2023-11-19T06:28:14;12.77;;;3.07;;
11498;SDS011;5806;48.748;9.278;2023-11-19T06:30:43;14.47;;;3.43;;
11498;SDS011;5806;48.748;9.278;2023-11-19T06:33:14;14.50;;;3.57;;
11498;SDS011;5806;48.748;9.278;2023-11-19T06:35:41;16.67;;;3.53;;
11498;SDS011;5806;48.748;9.278;2023-11-19T06:38:09;14.20;;;3.10;;
11498;SDS011;5806;48.748;9.278;2023-11-19T06:40:37;19.83;;;3.67;;
11498;SDS011;5806;48.748;9.278;2023-11-19T06:43:06;21.17;;;3.33;;
11498;SDS011;5806;48.748;9.278;2023-11-19T06:45:37;13.30;;;3.50;;
11498;SDS011;5806;48.748;9.278;2023-11-19T06:48:04;16.63;;;3.83;;
11498;SDS011;5806;48.748;9.278;2023-11-19T06:50:34;17.53;;;3.87;;
11498;SDS011;5806;48.748;9.278;2023-11-19T06:53:04;16.17;;;3.60;;
11498;SDS011;5806;48.748;9.278;2023-11-19T06:55:33;25.70;;;4.43;;
11498;SDS011;5806;48.748;9.278;2023-11-19T06:58:01;16.90;;;3.20;;
11498;SDS011;5806;48.748;9.278;2023-11-19T07:00:29;19.23;;;3.53;;
11498;SDS011;5806;48.748;9.278;2023-11-19T07:02:58;13.87;;;3.17;;
11498;SDS011;5806;48.748;9.278;2023-11-19T07:05:27;18.77;;;4.07;;
11498;SDS011;5806;48.748;9.278;2023-11-19T07:07:55;14.07;;;3.03;;
11498;SDS011;5806;48.748;9.278;2023-11-19T07:10:23;15.90;;;3.27;;
11498;SDS011;5806;48.748;9.278;2023-11-19T07:12:50;18.23;;;3.57;;
11498;SDS011;5806;48.748;9.278;2023-11-19T07:15:18;14.60;;;3.47;;
11498;SDS011;5806;48.748;9.278;2023-11-19T07:17:45;13.30;;;3.50;;
11498;SDS011;5806;48.748;9.278;2023-11-19T07:20:13;22.50;;;3.47;;
11498;SDS011;5806;48.748;9.278;2023-11-19T07:22:44;20.23;;;3.90;;
11498;SDS011;5806;48.748;9.278;2023-11-19T07:25:14;12.80;;;3.17;;
11498;SDS011;5806;48.748;9.278;2023-11-19T07:27:43;18.13;;;3.40;;
11498;SDS011;5806;48.748;9.278;2023-11-19T07:30:12;18.63;;;4.30;;
11498;SDS011;5806;48.748;9.278;2023-11-19T07:32:39;22.37;;;3.77;;
11498;SDS011;5806;48.748;9.278;2023-11-19T07:35:07;17.33;;;2.93;;
11498;SDS011;5806;48.748;9.278;2023-11-19T07:37:34;18.73;;;3.40;;
11498;SDS011;5806;48.748;9.278;2023-11-19T07:40:02;18.90;;;4.30;;
11498;SDS011;5806;48.748;9.278;2023-11-19T07:42:30;14.07;;;3.37;;
11498;SDS011;5806;48.748;9.278;2023-11-19T07:44:57;18.90;;;3.47;;
11498;SDS011;5806;48.748;9.278;2023-11-19T07:47:24;16.23;;;3.60;;
11498;SDS011;5806;48.748;9.278;2023-11-19T07:49:53;14.87;;;2.93;;
11498;SDS011;5806;48.748;9.278;2023-11-19T07:52:21;14.33;;;3.47;;
11498;SDS011;5806;48.748;9.278;2023-11-19T07:54:48;12.53;;;3.13;;
11498;SDS011;5806;48.748;9.278;2023-11-19T07:57:16;13.80;;;2.83;;
11498;SDS011;5806;48.748;9.278;2023-11-19T07:59:43;17.23;;;3.83;;
11498;SDS011;5806;48.748;9.278;2023-11-19T08:02:11;18.83;;;3.50;;
11498;SDS011;5806;48.748;9.278;2023-11-19T08:04:39;21.53;;;3.70;;
11498;SDS011;5806;48.748;9.278;2023-11-19T08:07:08;15.50;;;3.43;;
11498;SDS011;5806;48.748;9.278;2023-11-19T08:09:35;19.10;;;3.30;;
11498;SDS011;5806;48.748;9.278;2023-11-19T08:12:03;28.37;;;3.83;;
11498;SDS011;5806;48.748;9.278;2023-11-19T08:14:32;16.37;;;3.67;;
11498;SDS011;5806;48.748;9.278;2023-11-19T08:16:59;18.40;;;4.00;;
11498;SDS011;5806;48.748;9.278;2023-11-19T08:19:27;18.40;;;3.93;;
11498;SDS011;5806;48.748;9.278;2023-11-19T08:21:54;16.87;;;4.03;;
11498;SDS011;5806;48.748;9.278;2023-11-19T08:24:22;14.87;;;3.23;;
11498;SDS011;5806;48.748;9.278;2023-11-19T08:26:49;21.03;;;3.00;;
11498;SDS011;5806;48.748;9.278;2023-11-19T08:29:17;18.00;;;3.73;;
11498;SDS011;5806;48.748;9.278;2023-11-19T08:31:44;23.00;;;4.07;;
11498;SDS011;5806;48.748;9.278;2023-11-19T08:34:12;18.67;;;3.43;;
11498;SDS011;5806;48.748;9.278;2023-11-19T08:36:39;18.77;;;4.97;;
11498;SDS011;5806;48.748;9.278;2023-11-19T08:39:07;19.67;;;3.50;;
11498;SDS011;5806;48.748;9.278;2023-11-19T08:41:34;17.67;;;3.60;;
11498;SDS011;5806;48.748;9.278;2023-11-19T08:44:03;18.40;;;4.40;;
11498;SDS011;5806;48.748;9.278;2023-11-19T08:46:31;14.47;;;3.83;;
11498;SDS011;5806;48.748;9.278;2023-11-19T08:48:58;16.37;;;3.43;;
11498;SDS011;5806;48.748;9.278;2023-11-19T08:51:26;23.93;;;4.33;;
11498;SDS011;5806;48.748;9.278;2023-11-19T08:53:54;14.07;;;3.90;;
11498;SDS011;5806;48.748;9.278;2023-11-19T08:56:21;17.57;;;3.33;;
11498;SDS011;5806;48.748;9.278;2023-11-19T08:58:48;18.17;;;3.90;;
11498;SDS011;5806;48.748;9.278;2023-11-19T09:01:16;20.00;;;4.10;;
11498;SDS011;5806;48.748;9.278;2023-11-19T09:03:43;21.47;;;3.43;;
11498;SDS011;5806;48.748;9.278;2023-11-19T09:06:11;12.73;;;3.77;;
11498;SDS011;5806;48.748;9.278;2023-11-19T09:08:38;20.47;;;3.60;;
11498;SDS011;5806;48.748;9.278;2023-11-19T09:11:08;23.43;;;4.27;;
11498;SDS011;5806;48.748;9.278;2023-11-19T09:13:37;17.47;;;3.17;;
11498;SDS011;5806;48.748;9.278;2023-11-19T09:16:04;25.53;;;4.27;;
11498;SDS011;5806;48.748;9.278;2023-11-19T09:18:32;17.13;;;3.20;;
11498;SDS011;5806;48.748;9.278;2023-11-19T09:21:00;20.10;;;4.53;;
11498;SDS011;5806;48.748;9.278;2023-11-19T09:23:28;16.60;;;3.50;;
11498;SDS011;5806;48.748;9.278;2023-11-19T09:25:57;19.13;;;4.03;;
11498;SDS011;5806;48.748;9.278;2023-11-19T09:28:25;17.73;;;3.40;;
11498;SDS011;5806;48.748;9.278;2023-11-19T09:30:52;19.53;;;4.17;;
11498;SDS011;5806;48.748;9.278;2023-11-19T09:33:20;16.50;;;3.07;;
11498;SDS011;5806;48.748;9.278;2023-11-19T09:35:47;20.00;;;3.23;;
11498;SDS011;5806;48.748;9.278;2023-11-19T09:38:15;18.57;;;4.23;;
11498;SDS011;5806;48.748;9.278;2023-11-19T09:40:42;18.53;;;3.47;;
11498;SDS011;5806;48.748;9.278;2023-11-19T09:43:10;21.30;;;4.00;;
11498;SDS011;5806;48.748;9.278;2023-11-19T09:45:46;17.77;;;3.57;;
11498;SDS011;5806;48.748;9.278;2023-11-19T09:48:17;18.67;;;4.00;;
11498;SDS011;5806;48.748;9.278;2023-11-19T09:50:46;17.90;;;3.60;;
11498;SDS011;5806;48.748;9.278;2023-11-19T09:53:15;16.07;;;3.83;;
11498;SDS011;5806;48.748;9.278;2023-11-19T09:55:42;14.57;;;3.37;;
11498;SDS011;5806;48.748;9.278;2023-11-19T09:58:11;21.27;;;4.27;;
11498;SDS011;5806;48.748;9.278;2023-11-19T10:00:41;15.13;;;3.77;;
11498;SDS011;5806;48.748;9.278;2023-11-19T10:03:08;16.43;;;4.10;;
11498;SDS011;5806;48.748;9.278;2023-11-19T10:05:38;22.93;;;3.40;;
11498;SDS011;5806;48.748;9.278;2023-11-19T10:08:07;17.87;;;3.20;;
11498;SDS011;5806;48.748;9.278;2023-11-19T10:10:36;16.53;;;4.47;;
11498;SDS011;5806;48.748;9.278;2023-11-19T10:13:04;19.77;;;4.07;;
11498;SDS011;5806;48.748;9.278;2023-11-19T10:15:36;14.60;;;3.30;;
11498;SDS011;5806;48.748;9.278;2023-11-19T10:18:03;20.47;;;3.70;;
11498;SDS011;5806;48.748;9.278;2023-11-19T10:20:37;17.63;;;4.07;;
11498;SDS011;5806;48.748;9.278;2023-11-19T10:23:06;19.27;;;3.60;;
11498;SDS011;5806;48.748;9.278;2023-11-19T10:25:33;16.93;;;3.27;;
11498;SDS011;5806;48.748;9.278;2023-11-19T10:28:01;18.30;;;3.70;;
11498;SDS011;5806;48.748;9.278;2023-11-19T10:30:29;19.20;;;3.73;;
11498;SDS011;5806;48.748;9.278;2023-11-19T10:35:55;21.17;;;4.57;;
11498;SDS011;5806;48.748;9.278;2023-11-19T10:38:24;21.90;;;3.73;;
11498;SDS011;5806;48.748;9.278;2023-11-19T10:40:52;20.33;;;4.30;;
11498;SDS011;5806;48.748;9.278;2023-11-19T10:43:20;21.43;;;4.47;;
11498;SDS011;5806;48.748;9.278;2023-11-19T10:45:48;19.13;;;4.47;;
11498;SDS011;5806;48.748;9.278;2023-11-19T10:48:16;17.03;;;3.20;;
11498;SDS011;5806;48.748;9.278;2023-11-19T10:50:44;24.33;;;3.60;;
11498;SDS011;5806;48.748;9.278;2023-11-19T10:53:14;17.77;;;3.87;;
11498;SDS011;5806;48.748;9.278;2023-11-19T10:55:42;14.33;;;3.53;;
11498;SDS011;5806;48.748;9.278;2023-11-19T10:58:13;23.07;;;3.83;;
11498;SDS011;5806;48.748;9.278;2023-11-19T11:00:52;16.83;;;2.97;;
11498;SDS011;5806;48.748;9.278;2023-11-19T11:03:24;16.20;;;3.50;;
11498;SDS011;5806;48.748;9.278;2023-11-19T11:05:52;11.80;;;2.67;;
11498;SDS011;5806;48.748;9.278;2023-11-19T11:08:20;23.43;;;3.60;;
11498;SDS011;5806;48.748;9.278;2023-11-19T11:10:52;15.90;;;3.57;;
11498;SDS011;5806;48.748;9.278;2023-11-19T11:13:24;14.37;;;2.90;;
11498;SDS011;5806;48.748;9.278;2023-11-19T11:15:56;15.77;;;3.63;;
11498;SDS011;5806;48.748;9.278;2023-11-19T11:18:24;11.67;;;2.57;;
11498;SDS011;5806;48.748;9.278;2023-11-19T11:20:57;14.47;;;2.90;;
11498;SDS011;5806;48.748;9.278;2023-11-19T11:29:20;17.07;;;3.53;;
11498;SDS011;5806;48.748;9.278;2023-11-19T11:34:39;20.93;;;3.27;;
11498;SDS011;5806;48.748;9.278;2023-11-19T11:37:08;21.80;;;4.50;;
11498;SDS011;5806;48.748;9.278;2023-11-19T11:39:39;15.57;;;3.30;;
11498;SDS011;5806;48.748;9.278;2023-11-19T11:45:04;21.33;;;4.13;;
11498;SDS011;5806;48.748;9.278;2023-11-19T11:55:28;11.77;;;2.47;;
11498;SDS011;5806;48.748;9.278;2023-11-19T11:58:19;13.63;;;3.00;;
11498;SDS011;5806;48.748;9.278;2023-11-19T12:00:57;11.17;;;2.60;;
11498;SDS011;5806;48.748;9.278;2023-11-19T12:03:27;16.33;;;3.07;;
11498;SDS011;5806;48.748;9.278;2023-11-19T12:05:56;18.57;;;3.43;;
11498;SDS011;5806;48.748;9.278;2023-11-19T12:08:25;12.63;;;2.97;;
11498;SDS011;5806;48.748;9.278;2023-11-19T12:10:55;15.33;;;3.23;;
11498;SDS011;5806;48.748;9.278;2023-11-19T12:13:24;12.23;;;2.53;;
11498;SDS011;5806;48.748;9.278;2023-11-19T12:18:28;16.00;;;2.83;;
11498;SDS011;5806;48.748;9.278;2023-11-19T12:20:57;12.27;;;2.23;;
11498;SDS011;5806;48.748;9.278;2023-11-19T12:23:29;11.77;;;2.83;;
11498;SDS011;5806;48.748;9.278;2023-11-19T12:25:57;14.70;;;3.47;;
11498;SDS011;5806;48.748;9.278;2023-11-19T12:28:25;12.27;;;2.50;;
11498;SDS011;5806;48.748;9.278;2023-11-19T12:30:53;15.13;;;2.73;;
11498;SDS011;5806;48.748;9.278;2023-11-19T12:33:22;14.40;;;2.80;;
11498;SDS011;5806;48.748;9.278;2023-11-19T12:35:49;13.63;;;3.40;;
11498;SDS011;5806;48.748;9.278;2023-11-19T12:38:25;14.40;;;2.47;;
11498;SDS011;5806;48.748;9.278;2023-11-19T12:41:08;12.87;;;2.93;;
11498;SDS011;5806;48.748;9.278;2023-11-19T12:43:37;16.13;;;2.87;;
11498;SDS011;5806;48.748;9.278;2023-11-19T12:46:20;12.60;;;2.63;;
11498;SDS011;5806;48.748;9.278;2023-11-19T12:48:48;13.00;;;2.83;;
11498;SDS011;5806;48.748;9.278;2023-11-19T12:51:16;15.63;;;3.10;;
11498;SDS011;5806;48.748;9.278;2023-11-19T12:53:48;20.10;;;2.87;;
11498;SDS011;5806;48.748;9.278;2023-11-19T12:56:19;17.07;;;3.33;;
11498;SDS011;5806;48.748;9.278;2023-11-19T12:58:47;15.87;;;3.00;;
11498;SDS011;5806;48.748;9.278;2023-11-19T13:01:18;16.13;;;2.87;;
11498;SDS011;5806;48.748;9.278;2023-11-19T13:03:47;11.77;;;2.93;;
11498;SDS011;5806;48.748;9.278;2023-11-19T13:06:16;12.67;;;2.87;;
11498;SDS011;5806;48.748;9.278;2023-11-19T13:08:47;15.93;;;2.67;;
11498;SDS011;5806;48.748;9.278;2023-11-19T13:11:33;12.47;;;2.60;;
11498;SDS011;5806;48.748;9.278;2023-11-19T13:14:02;7.67;;;2.00;;
11498;SDS011;5806;48.748;9.278;2023-11-19T13:16:31;10.83;;;2.67;;
11498;SDS011;5806;48.748;9.278;2023-11-19T13:18:58;16.07;;;3.30;;
11498;SDS011;5806;48.748;9.278;2023-11-19T13:21:26;11.30;;;2.97;;
11498;SDS011;5806;48.748;9.278;2023-11-19T13:23:53;13.33;;;2.73;;
11498;SDS011;5806;48.748;9.278;2023-11-19T13:26:21;14.07;;;2.90;;
11498;SDS011;5806;48.748;9.278;2023-11-19T13:28:49;12.17;;;2.50;;
11498;SDS011;5806;48.748;9.278;2023-11-19T13:31:17;11.00;;;3.00;;
11498;SDS011;5806;48.748;9.278;2023-11-19T13:33:44;12.23;;;2.73;;
11498;SDS011;5806;48.748;9.278;2023-11-19T13:36:12;14.70;;;2.93;;
11498;SDS011;5806;48.748;9.278;2023-11-19T13:38:39;9.70;;;2.60;;
11498;SDS011;5806;48.748;9.278;2023-11-19T13:41:08;14.20;;;2.73;;
11498;SDS011;5806;48.748;9.278;2023-11-19T13:43:37;15.37;;;3.40;;
11498;SDS011;5806;48.748;9.278;2023-11-19T13:46:04;13.63;;;2.57;;
11498;SDS011;5806;48.748;9.278;2023-11-19T13:48:32;12.13;;;2.97;;
11498;SDS011;5806;48.748;9.278;2023-11-19T13:50:59;16.30;;;2.90;;
11498;SDS011;5806;48.748;9.278;2023-11-19T13:53:27;14.03;;;3.43;;
11498;SDS011;5806;48.748;9.278;2023-11-19T13:55:54;13.07;;;2.83;;
11498;SDS011;5806;48.748;9.278;2023-11-19T13:58:21;15.60;;;2.60;;
11498;SDS011;5806;48.748;9.278;2023-11-19T14:00:49;15.37;;;3.07;;
11498;SDS011;5806;48.748;9.278;2023-11-19T14:03:16;12.80;;;2.87;;
11498;SDS011;5806;48.748;9.278;2023-11-19T14:05:44;18.53;;;3.53;;
11498;SDS011;5806;48.748;9.278;2023-11-19T14:08:12;14.70;;;2.97;;
11498;SDS011;5806;48.748;9.278;2023-11-19T14:10:39;12.13;;;2.90;;
11498;SDS011;5806;48.748;9.278;2023-11-19T14:13:07;14.53;;;2.80;;
11498;SDS011;5806;48.748;9.278;2023-11-19T14:15:34;12.33;;;3.53;;
11498;SDS011;5806;48.748;9.278;2023-11-19T14:18:02;22.33;;;3.77;;
11498;SDS011;5806;48.748;9.278;2023-11-19T14:20:29;15.53;;;3.30;;
11498;SDS011;5806;48.748;9.278;2023-11-19T14:22:57;15.47;;;3.20;;
11498;SDS011;5806;48.748;9.278;2023-11-19T14:25:24;12.47;;;3.00;;
11498;SDS011;5806;48.748;9.278;2023-11-19T14:27:52;14.10;;;2.73;;
11498;SDS011;5806;48.748;9.278;2023-11-19T14:30:19;18.13;;;3.67;;
11498;SDS011;5806;48.748;9.278;2023-11-19T14:32:46;16.67;;;4.20;;
11498;SDS011;5806;48.748;9.278;2023-11-19T14:35:15;13.90;;;2.97;;
11498;SDS011;5806;48.748;9.278;2023-11-19T14:37:42;12.90;;;2.70;;
11498;SDS011;5806;48.748;9.278;2023-11-19T14:40:10;14.47;;;3.30;;
11498;SDS011;5806;48.748;9.278;2023-11-19T14:42:37;19.17;;;2.50;;
11498;SDS011;5806;48.748;9.278;2023-11-19T14:45:05;16.27;;;3.00;;
11498;SDS011;5806;48.748;9.278;2023-11-19T14:47:33;13.97;;;3.40;;
11498;SDS011;5806;48.748;9.278;2023-11-19T14:50:01;11.27;;;2.60;;
11498;SDS011;5806;48.748;9.278;2023-11-19T14:52:28;14.40;;;2.73;;
11498;SDS011;5806;48.748;9.278;2023-11-19T14:54:56;11.07;;;2.93;;
11498;SDS011;5806;48.748;9.278;2023-11-19T14:57:23;11.20;;;2.60;;
11498;SDS011;5806;48.748;9.278;2023-11-19T14:59:50;11.77;;;2.70;;
11498;SDS011;5806;48.748;9.278;2023-11-19T15:02:18;13.90;;;2.53;;
11498;SDS011;5806;48.748;9.278;2023-11-19T15:04:47;11.43;;;2.93;;
11498;SDS011;5806;48.748;9.278;2023-11-19T15:07:14;12.80;;;3.10;;
11498;SDS011;5806;48.748;9.278;2023-11-19T15:09:42;10.10;;;2.57;;
11498;SDS011;5806;48.748;9.278;2023-11-19T15:12:09;12.37;;;2.73;;
11498;SDS011;5806;48.748;9.278;2023-11-19T15:14:37;10.90;;;2.43;;
11498;SDS011;5806;48.748;9.278;2023-11-19T15:17:04;13.23;;;3.43;;
11498;SDS011;5806;48.748;9.278;2023-11-19T15:19:33;12.30;;;3.07;;
11498;SDS011;5806;48.748;9.278;2023-11-19T15:22:00;11.03;;;3.00;;
11498;SDS011;5806;48.748;9.278;2023-11-19T15:24:30;13.43;;;2.33;;